»·PEaware :: XB-AVE KSMX-KBFL

XB-AVE :: KSMX-KBFL

FLIGHT INFORMATION

Flight Status: Arrived
Operator: Privately registered:
Mexico
More flights under this callsign
Pilot: José E. (16166)
Aircraft: CESSNA 172 SKYHAWK
(C172)
More flights by this aircraft type
Origin: KSMX Santa Maria Pub/Capt Hancock
United States
Destination: KBFL Meadows
United States
More flights between these airports :: More routes between these airports
Route: +
File this flight plan on PilotEdge
Remarks:
Altitude:
(Current/Filed)
5,500ft
Speed:
(Current/Filed)
0kts
Departed: 18-Sep-17 02:19 PM
Arrived: 18-Sep-17 03:13 PM
Distance/Time
Traveled:
76nm/0:53
Distance/Time
To Go:
Arrived

Flight Plot

Page will automatically refresh every two minutes.


Map Options




Map Legend


Flown Route
Filed Route
Departure Airport
Arrival Airport
Navaid (VOR, NDB)
Fix

Horizontal Profiles

Position Reports

Time Latitude Longitude Heading Altitude Ground
Speed
18-Sep-17 14:17 34.898849 -120.448332 217 246ft 4kts
18-Sep-17 14:18 34.897436 -120.448865 151 246ft 5kts
18-Sep-17 14:19 34.896032 -120.447229 135 251ft 11kts
18-Sep-17 14:20 34.894243 -120.445679 183 256ft 4kts
18-Sep-17 14:21 34.893990 -120.445694 181 256ft 1kts
18-Sep-17 14:22 34.893410 -120.445696 184 257ft 12kts
18-Sep-17 14:23 34.905177 -120.460059 319 684ft 86kts
18-Sep-17 14:24 34.920792 -120.447362 71 1589ft 85kts
18-Sep-17 14:25 34.926921 -120.420085 75 2464ft 83kts
18-Sep-17 14:26 34.933520 -120.394721 69 3135ft 88kts
18-Sep-17 14:27 34.941979 -120.366560 65 3882ft 90kts
18-Sep-17 14:28 34.950801 -120.341280 63 4512ft 91kts
18-Sep-17 14:29 34.961688 -120.312644 60 5169ft 93kts
18-Sep-17 14:30 34.973197 -120.285166 59 5779ft 96kts
18-Sep-17 14:31 34.983996 -120.257276 60 6402ft 97kts
18-Sep-17 14:32 34.995554 -120.228045 62 7072ft 102kts
18-Sep-17 14:33 35.007523 -120.196614 62 7468ft 107kts
18-Sep-17 14:34 35.020381 -120.163235 62 7543ft 112kts
18-Sep-17 14:35 35.033509 -120.128692 63 7534ft 111kts
18-Sep-17 14:36 35.046012 -120.095148 62 7502ft 108kts
18-Sep-17 14:37 35.058793 -120.060940 62 7495ft 111kts
18-Sep-17 14:38 35.071420 -120.026800 63 7576ft 109kts
18-Sep-17 14:39 35.084781 -119.993074 62 7625ft 110kts
18-Sep-17 14:40 35.098544 -119.959018 63 7646ft 112kts
18-Sep-17 14:41 35.111795 -119.924506 64 7605ft 114kts
18-Sep-17 14:42 35.124796 -119.889569 63 7613ft 112kts
18-Sep-17 14:43 35.136352 -119.854748 67 7400ft 109kts
18-Sep-17 14:44 35.147654 -119.820084 67 6822ft 109kts
18-Sep-17 14:45 35.156702 -119.785267 72 6223ft 102kts
18-Sep-17 14:46 35.165076 -119.752746 70 5666ft 99kts
18-Sep-17 14:47 35.175837 -119.720719 57 5672ft 99kts
18-Sep-17 14:48 35.188892 -119.690457 62 5761ft 101kts
18-Sep-17 14:49 35.200596 -119.658773 62 5819ft 104kts
18-Sep-17 14:50 35.211007 -119.626944 66 5808ft 97kts
18-Sep-17 14:51 35.222028 -119.596147 59 5591ft 98kts
18-Sep-17 14:52 35.234751 -119.566569 58 5461ft 97kts
18-Sep-17 14:53 35.244741 -119.535802 63 5076ft 96kts
18-Sep-17 14:54 35.257243 -119.506885 54 4638ft 94kts
18-Sep-17 14:55 35.270770 -119.479280 55 4214ft 94kts
18-Sep-17 14:56 35.285255 -119.453264 57 3826ft 91kts
18-Sep-17 14:57 35.296299 -119.425237 66 3448ft 91kts
18-Sep-17 14:58 35.303722 -119.395006 81 3570ft 93kts
18-Sep-17 14:59 35.305262 -119.363060 88 3768ft 94kts
18-Sep-17 15:00 35.300771 -119.332002 100 4013ft 91kts
18-Sep-17 15:01 35.299036 -119.301621 95 4172ft 90kts
18-Sep-17 15:02 35.299564 -119.271138 81 4298ft 94kts
18-Sep-17 15:03 35.302364 -119.239094 80 4270ft 94kts
18-Sep-17 15:04 35.304661 -119.207553 84 4338ft 93kts
18-Sep-17 15:05 35.306215 -119.176425 84 4157ft 91kts
18-Sep-17 15:06 35.307890 -119.145999 83 3791ft 87kts
18-Sep-17 15:07 35.310307 -119.116635 84 3330ft 85kts
18-Sep-17 15:08 35.313318 -119.088140 78 2862ft 85kts
18-Sep-17 15:09 35.317019 -119.060074 73 2439ft 80kts
18-Sep-17 15:10 35.328081 -119.036530 41 2001ft 84kts
18-Sep-17 15:11 35.345330 -119.020075 34 1734ft 83kts
18-Sep-17 15:12 35.362451 -119.005602 36 1507ft 81kts
18-Sep-17 15:13 35.383190 -118.997078 357 1387ft 78kts
18-Sep-17 15:14 35.400292 -119.015800 316 1416ft 84kts
18-Sep-17 15:15 35.417112 -119.035925 317 997ft 86kts
18-Sep-17 15:16 35.433718 -119.055997 312 530ft 75kts
18-Sep-17 15:17 35.439206 -119.062454 304 493ft 1kts

Navigation Log

Ident Type
1. KSMX Airport
2. KBFL Airport